createdAt,value
2023-03-16T00:02:14.286Z,101674.78
2023-03-16T00:04:38.433Z,101672.13
2023-03-16T00:07:01.968Z,101678.34
2023-03-16T00:09:31.122Z,101676.00
2023-03-16T00:11:54.817Z,101683.06
2023-03-16T00:14:19.771Z,101679.53
2023-03-16T00:16:43.384Z,101683.00
2023-03-16T00:19:07.023Z,101683.75
2023-03-16T00:21:32.209Z,101691.06
2023-03-16T00:23:55.967Z,101684.09
2023-03-16T00:26:19.914Z,101686.72
2023-03-16T00:28:43.704Z,101687.72
2023-03-16T00:31:11.900Z,101691.44
2023-03-16T00:33:37.703Z,101692.41
2023-03-16T00:36:08.098Z,101686.13
2023-03-16T00:38:36.060Z,101693.50
2023-03-16T00:40:59.922Z,101683.69
2023-03-16T00:43:23.692Z,101684.59
2023-03-16T00:45:48.623Z,101688.13
2023-03-16T00:48:13.677Z,101691.66
2023-03-16T00:50:37.403Z,101691.41
2023-03-16T00:53:01.199Z,101696.81
2023-03-16T00:55:24.915Z,101696.69
2023-03-16T00:57:48.655Z,101697.69
2023-03-16T01:00:16.749Z,101695.75
2023-03-16T01:02:40.407Z,101695.81
2023-03-16T01:05:07.177Z,101706.38
2023-03-16T01:07:31.232Z,101696.66
2023-03-16T01:09:54.783Z,101701.09
2023-03-16T01:12:20.832Z,101702.94
2023-03-16T01:14:46.310Z,101695.00
2023-03-16T01:17:11.151Z,101698.44
2023-03-16T01:19:35.752Z,101706.47
2023-03-16T01:22:02.085Z,101703.78
2023-03-16T01:24:25.686Z,101710.06
2023-03-16T01:26:49.337Z,101699.59
2023-03-16T01:29:13.286Z,101703.97
2023-03-16T01:31:37.235Z,101706.63
2023-03-16T01:34:02.852Z,101698.09
2023-03-16T01:36:26.796Z,101703.38
2023-03-16T01:38:55.859Z,101697.28
2023-03-16T01:41:22.400Z,101697.22
2023-03-16T01:43:46.222Z,101687.78
2023-03-16T01:46:24.816Z,101699.84
2023-03-16T01:49:08.642Z,101692.97
2023-03-16T01:51:39.176Z,101693.84
2023-03-16T01:54:09.587Z,101691.25
2023-03-16T01:56:39.499Z,101701.84
2023-03-16T01:59:09.138Z,101696.41
2023-03-16T02:01:33.432Z,101694.75
2023-03-16T02:04:06.358Z,101690.38
2023-03-16T02:06:32.343Z,101694.84
2023-03-16T02:08:58.513Z,101696.72
2023-03-16T02:11:24.906Z,101691.41
2023-03-16T02:14:12.832Z,101682.69
2023-03-16T02:16:39.226Z,101684.44
2023-03-16T02:19:03.094Z,101694.38
2023-03-16T02:21:35.849Z,101690.22
2023-03-16T02:24:03.240Z,101690.88
2023-03-16T02:26:37.683Z,101692.69
2023-03-16T02:29:15.820Z,101693.56
2023-03-16T02:31:43.049Z,101690.84
2023-03-16T02:34:08.295Z,101693.53
2023-03-16T02:36:34.450Z,101695.31
2023-03-16T02:38:59.463Z,101689.19
2023-03-16T02:41:24.125Z,101691.13
2023-03-16T02:43:57.135Z,101695.59
2023-03-16T02:46:29.681Z,101691.97
2023-03-16T02:49:03.157Z,101700.84
2023-03-16T02:51:26.916Z,101689.59
2023-03-16T02:53:51.337Z,101693.03
2023-03-16T02:56:15.715Z,101693.00
2023-03-16T02:58:39.368Z,101700.09
2023-03-16T03:01:08.359Z,101698.28
2023-03-16T03:03:34.431Z,101709.72
2023-03-16T03:05:59.586Z,101713.50
2023-03-16T03:08:23.576Z,101717.00
2023-03-16T03:10:47.718Z,101711.72
2023-03-16T03:13:12.318Z,101716.16
2023-03-16T03:15:37.262Z,101716.06
2023-03-16T03:18:05.259Z,101719.63
2023-03-16T03:20:29.748Z,101722.38
2023-03-16T03:22:55.336Z,101718.84
2023-03-16T03:25:20.243Z,101731.13
2023-03-16T03:27:44.847Z,101731.22
2023-03-16T03:30:14.765Z,101729.56
2023-03-16T03:32:38.451Z,101735.66
2023-03-16T03:35:02.236Z,101729.50
2023-03-16T03:37:25.837Z,101739.22
2023-03-16T03:39:51.211Z,101731.38
2023-03-16T03:42:15.121Z,101725.28
2023-03-16T03:44:38.784Z,101731.63
2023-03-16T03:47:02.628Z,101733.38
2023-03-16T03:49:26.296Z,101735.03
2023-03-16T03:51:49.967Z,101728.97
2023-03-16T03:54:18.675Z,101730.88
2023-03-16T03:56:55.679Z,101732.72
2023-03-16T03:59:19.435Z,101730.03
2023-03-16T04:01:59.889Z,101729.31
2023-03-16T04:04:33.536Z,101731.22
2023-03-16T04:06:57.233Z,101725.81
2023-03-16T04:09:20.776Z,101726.69
2023-03-16T04:11:44.593Z,101721.41
2023-03-16T04:14:09.879Z,101723.94
2023-03-16T04:16:35.935Z,101722.31
2023-03-16T04:18:59.829Z,101722.28
2023-03-16T04:21:24.372Z,101726.75
2023-03-16T04:23:48.210Z,101726.72
2023-03-16T04:26:12.708Z,101728.31
2023-03-16T04:28:38.528Z,101731.97
2023-03-16T04:31:06.990Z,101727.41
2023-03-16T04:33:36.349Z,101729.31
2023-03-16T04:35:59.966Z,101728.50
2023-03-16T04:38:23.823Z,101733.72
2023-03-16T04:40:52.584Z,101734.03
2023-03-16T04:43:19.810Z,101740.88
2023-03-16T04:45:45.286Z,101743.50
2023-03-16T04:48:10.753Z,101736.56
2023-03-16T04:50:35.620Z,101733.94
2023-03-16T04:52:59.270Z,101740.16
2023-03-16T04:55:24.409Z,101746.41
2023-03-16T04:57:48.652Z,101743.66
2023-03-16T05:00:18.956Z,101744.59
2023-03-16T05:02:58.897Z,101753.50
2023-03-16T05:05:23.987Z,101749.88
2023-03-16T05:07:47.882Z,101750.56
2023-03-16T05:10:13.723Z,101746.28
2023-03-16T05:12:37.282Z,101752.50
2023-03-16T05:15:02.815Z,101760.53
2023-03-16T05:17:33.141Z,101758.75
2023-03-16T05:19:56.697Z,101756.22
2023-03-16T05:22:21.673Z,101755.25
2023-03-16T05:25:05.514Z,101759.81
2023-03-16T05:27:30.084Z,101762.41
2023-03-16T05:29:54.261Z,101762.34
2023-03-16T05:32:18.192Z,101764.81
2023-03-16T05:34:43.495Z,101764.75
2023-03-16T05:37:07.960Z,101772.75
2023-03-16T05:39:34.529Z,101767.47
2023-03-16T05:41:58.434Z,101771.00
2023-03-16T05:44:36.454Z,101770.94
2023-03-16T05:47:11.655Z,101776.16
2023-03-16T05:49:39.828Z,101776.19
2023-03-16T05:52:08.652Z,101772.66
2023-03-16T05:54:34.335Z,101780.59
2023-03-16T05:56:57.958Z,101785.91
2023-03-16T05:59:22.104Z,101791.94
2023-03-16T06:01:50.653Z,101778.69
2023-03-16T06:04:16.422Z,101788.22
2023-03-16T06:06:40.889Z,101777.78
2023-03-16T06:09:12.767Z,101781.13
2023-03-16T06:11:38.215Z,101779.38
2023-03-16T06:14:02.042Z,101785.63
2023-03-16T06:16:25.754Z,101784.59
2023-03-16T06:18:49.383Z,101787.94
2023-03-16T06:21:13.327Z,101791.38
2023-03-16T06:23:37.653Z,101780.66
2023-03-16T06:26:03.161Z,101787.31
2023-03-16T06:28:30.199Z,101798.38
2023-03-16T06:30:55.863Z,101798.19
2023-03-16T06:33:22.173Z,101804.19
2023-03-16T06:35:48.248Z,101804.84
2023-03-16T06:38:24.540Z,101802.22
2023-03-16T06:40:55.939Z,101804.78
2023-03-16T06:43:20.552Z,101806.50
2023-03-16T06:45:46.314Z,101817.03
2023-03-16T06:48:10.345Z,101819.69
2023-03-16T06:50:34.081Z,101816.81
2023-03-16T06:52:57.816Z,101817.75
2023-03-16T06:55:22.242Z,101814.59
2023-03-16T06:57:46.709Z,101820.69
2023-03-16T07:00:14.085Z,101815.97
2023-03-16T07:02:40.548Z,101821.13
2023-03-16T07:05:05.870Z,101820.28
2023-03-16T07:07:29.917Z,101815.25
2023-03-16T07:09:53.498Z,101822.19
2023-03-16T07:12:17.091Z,101833.34
2023-03-16T07:14:42.122Z,101824.88
2023-03-16T07:17:08.704Z,101823.25
2023-03-16T07:19:33.611Z,101827.34
2023-03-16T07:21:58.878Z,101828.59
2023-03-16T07:24:23.774Z,101836.34
2023-03-16T07:26:47.499Z,101834.13
2023-03-16T07:29:19.810Z,101841.44
2023-03-16T07:31:43.620Z,101839.47
2023-03-16T07:34:12.463Z,101841.00
2023-03-16T07:36:42.802Z,101847.34
2023-03-16T07:39:07.387Z,101849.66
2023-03-16T07:41:32.810Z,101853.25
2023-03-16T07:44:11.376Z,101849.88
2023-03-16T07:46:36.238Z,101843.91
2023-03-16T07:49:00.057Z,101842.75
2023-03-16T07:51:23.870Z,101851.25
2023-03-16T07:53:50.098Z,101854.44
2023-03-16T07:56:17.864Z,101852.50
2023-03-16T07:58:44.509Z,101858.47
2023-03-16T08:01:09.350Z,101861.00
2023-03-16T08:03:33.043Z,101865.84
2023-03-16T08:05:57.681Z,101862.19
2023-03-16T08:08:22.390Z,101864.75
2023-03-16T08:10:49.154Z,101864.88
2023-03-16T08:13:15.786Z,101865.44
2023-03-16T08:15:42.426Z,101853.22
2023-03-16T08:18:16.065Z,101863.19
2023-03-16T08:20:39.946Z,101849.59
2023-03-16T08:23:05.084Z,101848.88
2023-03-16T08:25:35.072Z,101857.03
2023-03-16T08:28:05.982Z,101859.13
2023-03-16T08:30:31.015Z,101863.47
2023-03-16T08:33:23.019Z,101858.28
2023-03-16T08:35:49.299Z,101859.72
2023-03-16T08:38:13.584Z,101870.31
2023-03-16T08:40:37.466Z,101865.03
2023-03-16T08:43:01.761Z,101863.88
2023-03-16T08:45:26.974Z,101864.19
2023-03-16T08:47:51.196Z,101857.53
2023-03-16T08:50:15.622Z,101864.53
2023-03-16T08:52:39.231Z,101866.63
2023-03-16T08:55:04.940Z,101873.06
2023-03-16T08:57:28.579Z,101868.97
2023-03-16T08:59:52.259Z,101866.63
2023-03-16T09:02:17.314Z,101874.13
2023-03-16T09:04:41.037Z,101879.50
2023-03-16T09:07:09.618Z,101870.53
2023-03-16T09:09:34.308Z,101874.69
2023-03-16T09:11:58.967Z,101872.53
2023-03-16T09:14:23.592Z,101875.53
2023-03-16T09:16:47.120Z,101873.84
2023-03-16T09:19:12.145Z,101878.97
2023-03-16T09:21:36.250Z,101880.72
2023-03-16T09:24:00.415Z,101885.38
2023-03-16T09:26:28.677Z,101883.53
2023-03-16T09:28:52.456Z,101882.44
2023-03-16T09:31:21.113Z,101891.78
2023-03-16T09:33:44.870Z,101897.53
2023-03-16T09:36:11.559Z,101895.88
2023-03-16T09:38:35.145Z,101894.03
2023-03-16T09:41:03.360Z,101889.00
2023-03-16T09:43:44.425Z,101896.19
2023-03-16T09:46:12.681Z,101896.13
2023-03-16T09:48:39.770Z,101895.84
2023-03-16T09:51:05.623Z,101894.41
2023-03-16T09:53:34.273Z,101895.19
2023-03-16T09:56:03.829Z,101896.22
2023-03-16T09:58:27.433Z,101891.06
2023-03-16T10:01:01.296Z,101892.28
2023-03-16T10:03:41.745Z,101892.84
2023-03-16T10:06:11.603Z,101879.56
2023-03-16T10:08:42.069Z,101882.78
2023-03-16T10:11:26.076Z,101879.19
2023-03-16T10:13:55.568Z,101893.19
2023-03-16T10:16:23.377Z,101890.41
2023-03-16T10:18:50.914Z,101895.03
2023-03-16T10:21:18.257Z,101893.00
2023-03-16T10:23:44.825Z,101875.66
2023-03-16T10:26:16.719Z,101896.19
2023-03-16T10:28:42.426Z,101887.25
2023-03-16T10:31:06.474Z,101877.84
2023-03-16T10:33:33.591Z,101876.91
2023-03-16T10:36:03.820Z,101878.00
2023-03-16T10:38:32.988Z,101865.03
2023-03-16T10:40:58.805Z,101870.75
2023-03-16T10:43:22.788Z,101880.06
2023-03-16T10:45:47.597Z,101871.75
2023-03-16T10:48:15.980Z,101874.66
2023-03-16T10:50:39.597Z,101868.88
2023-03-16T10:53:05.462Z,101870.84
2023-03-16T10:55:32.544Z,101866.00
2023-03-16T10:57:58.314Z,101864.22
2023-03-16T11:00:26.395Z,101866.56
2023-03-16T11:02:52.324Z,101868.38
2023-03-16T11:05:29.450Z,101862.03
2023-03-16T11:08:00.502Z,101863.63
2023-03-16T11:10:33.151Z,101860.31
2023-03-16T11:13:04.459Z,101869.19
2023-03-16T11:15:29.610Z,101847.06
2023-03-16T11:17:54.749Z,101848.81
2023-03-16T11:20:23.488Z,101847.44
2023-03-16T11:22:48.820Z,101843.25
2023-03-16T11:25:20.425Z,101844.69
2023-03-16T11:27:50.437Z,101845.50
2023-03-16T11:30:22.146Z,101842.56
2023-03-16T11:32:53.534Z,101843.19
2023-03-16T11:35:20.726Z,101840.94
2023-03-16T11:37:58.830Z,101834.75
2023-03-16T11:40:40.118Z,101832.66
2023-03-16T11:43:21.390Z,101829.97
2023-03-16T11:45:54.936Z,101825.56
2023-03-16T11:48:30.686Z,101818.06
2023-03-16T11:51:06.430Z,101818.63
2023-03-16T11:53:52.933Z,101822.06
2023-03-16T11:56:27.732Z,101809.91
2023-03-16T11:59:03.893Z,101809.47
2023-03-16T12:01:54.334Z,101809.41
2023-03-16T12:04:42.011Z,101816.72
2023-03-16T12:07:21.933Z,101802.56
2023-03-16T12:10:06.578Z,101797.72
2023-03-16T12:12:42.792Z,101803.16
2023-03-16T12:15:30.032Z,101796.25
2023-03-16T12:18:02.769Z,101797.44
2023-03-16T12:20:31.703Z,101788.53
2023-03-16T12:23:01.062Z,101787.53
2023-03-16T12:25:38.117Z,101789.00
2023-03-16T12:28:05.472Z,101787.06
2023-03-16T12:30:45.905Z,101784.22
2023-03-16T12:33:20.830Z,101782.91
2023-03-16T12:35:50.873Z,101778.38
2023-03-16T12:38:33.248Z,101777.97
2023-03-16T12:41:09.618Z,101768.19
2023-03-16T12:43:46.850Z,101769.69
2023-03-16T12:46:15.657Z,101766.47
2023-03-16T12:48:46.431Z,101762.88
2023-03-16T12:51:10.128Z,101756.34
2023-03-16T12:53:46.800Z,101756.50
2023-03-16T12:56:13.452Z,101757.88
2023-03-16T12:58:37.321Z,101746.09
2023-03-16T13:01:01.472Z,101754.56
2023-03-16T13:03:27.808Z,101745.78
2023-03-16T13:05:57.817Z,101749.16
2023-03-16T13:08:23.470Z,101743.69
2023-03-16T13:11:03.348Z,101732.25
2023-03-16T13:13:28.463Z,101739.63
2023-03-16T13:16:07.167Z,101725.72
2023-03-16T13:18:39.207Z,101731.19
2023-03-16T13:21:18.898Z,101739.16
2023-03-16T13:23:57.488Z,101739.16
2023-03-16T13:26:37.415Z,101731.03
2023-03-16T13:29:01.368Z,101740.03
2023-03-16T13:31:30.014Z,101742.28
2023-03-16T13:33:56.986Z,101736.56
2023-03-16T13:36:22.452Z,101743.47
2023-03-16T13:38:57.422Z,101732.75
2023-03-16T13:41:21.185Z,101738.22
2023-03-16T13:43:45.117Z,101736.25
2023-03-16T13:46:17.088Z,101731.25
2023-03-16T13:48:41.841Z,101724.69
2023-03-16T13:51:06.808Z,101712.13
2023-03-16T13:53:33.769Z,101715.69
2023-03-16T13:56:00.095Z,101713.25
2023-03-16T13:58:29.412Z,101714.19
2023-03-16T14:00:58.098Z,101710.78
2023-03-16T14:03:22.509Z,101704.47
2023-03-16T14:05:47.534Z,101698.84
2023-03-16T14:08:18.840Z,101699.56
2023-03-16T14:10:45.219Z,101706.19
2023-03-16T14:13:12.102Z,101703.44
2023-03-16T14:15:39.475Z,101695.44
2023-03-16T14:18:21.436Z,101696.38
2023-03-16T14:20:45.265Z,101704.78
2023-03-16T14:23:23.258Z,101699.09
2023-03-16T14:25:50.173Z,101709.22
2023-03-16T14:28:17.853Z,101694.47
2023-03-16T14:30:52.493Z,101699.50
2023-03-16T14:33:30.911Z,101692.22
2023-03-16T14:35:57.589Z,101679.50
2023-03-16T14:38:23.340Z,101672.16
2023-03-16T14:40:56.047Z,101665.88
2023-03-16T14:43:20.606Z,101671.22
2023-03-16T14:45:44.262Z,101663.91
2023-03-16T14:48:17.027Z,101667.25
2023-03-16T14:50:40.631Z,101662.50
2023-03-16T14:53:05.733Z,101657.19
2023-03-16T14:55:30.277Z,101651.50
2023-03-16T14:57:55.473Z,101658.72
2023-03-16T15:00:21.910Z,101657.41
2023-03-16T15:02:51.803Z,101657.22
2023-03-16T15:05:24.996Z,101647.81
2023-03-16T15:07:54.726Z,101645.66
2023-03-16T15:10:24.703Z,101638.22
2023-03-16T15:12:54.240Z,101637.06
2023-03-16T15:15:22.651Z,101637.97
2023-03-16T15:17:48.288Z,101626.75
2023-03-16T15:20:14.141Z,101623.72
2023-03-16T15:22:39.602Z,101633.53
2023-03-16T15:25:09.248Z,101633.41
2023-03-16T15:27:37.513Z,101630.03
2023-03-16T15:30:01.996Z,101628.84
2023-03-16T15:32:27.317Z,101620.53
2023-03-16T15:34:51.084Z,101619.59
2023-03-16T15:37:16.244Z,101620.59
2023-03-16T15:39:40.234Z,101618.69
2023-03-16T15:42:04.303Z,101617.38
2023-03-16T15:44:28.164Z,101614.69
2023-03-16T15:46:53.861Z,101610.06
2023-03-16T15:49:19.121Z,101607.66
2023-03-16T15:51:43.096Z,101607.25
2023-03-16T15:54:09.622Z,101601.53
2023-03-16T15:56:47.263Z,101604.00
2023-03-16T15:59:18.164Z,101607.03
2023-03-16T16:01:46.177Z,101598.06
2023-03-16T16:04:16.503Z,101602.19
2023-03-16T16:06:42.008Z,101604.75
2023-03-16T16:09:05.992Z,101601.28
2023-03-16T16:11:30.822Z,101594.03
2023-03-16T16:13:56.684Z,101595.59
2023-03-16T16:16:21.746Z,101595.03
2023-03-16T16:18:46.750Z,101604.59
2023-03-16T16:21:19.256Z,101604.50
2023-03-16T16:23:44.500Z,101597.31
2023-03-16T16:26:17.950Z,101594.47
2023-03-16T16:28:42.030Z,101592.53
2023-03-16T16:31:13.391Z,101603.63
2023-03-16T16:33:37.549Z,101603.81
2023-03-16T16:36:03.989Z,101602.44
2023-03-16T16:38:28.149Z,101599.47
2023-03-16T16:40:55.313Z,101599.44
2023-03-16T16:43:35.016Z,101591.78
2023-03-16T16:45:59.276Z,101596.72
2023-03-16T16:48:33.008Z,101587.16
2023-03-16T16:50:56.845Z,101585.00
2023-03-16T16:53:22.447Z,101585.34
2023-03-16T16:55:46.297Z,101583.28
2023-03-16T16:58:23.565Z,101583.47
2023-03-16T17:00:55.237Z,101576.00
2023-03-16T17:03:24.757Z,101574.06
2023-03-16T17:05:48.553Z,101581.16
2023-03-16T17:08:14.305Z,101581.47
2023-03-16T17:10:39.739Z,101582.34
2023-03-16T17:13:03.528Z,101577.25
2023-03-16T17:15:32.415Z,101587.72
2023-03-16T17:18:02.011Z,101592.91
2023-03-16T17:20:27.293Z,101593.41
2023-03-16T17:22:51.445Z,101595.25
2023-03-16T17:25:15.522Z,101593.59
2023-03-16T17:27:39.217Z,101595.34
2023-03-16T17:30:03.148Z,101591.97
2023-03-16T17:32:28.252Z,101594.09
2023-03-16T17:34:52.564Z,101591.50
2023-03-16T17:37:20.126Z,101586.22
2023-03-16T17:39:43.929Z,101588.06
2023-03-16T17:42:12.531Z,101597.25
2023-03-16T17:44:39.287Z,101591.81
2023-03-16T17:47:03.010Z,101598.13
2023-03-16T17:49:30.643Z,101601.75
2023-03-16T17:51:54.531Z,101600.00
2023-03-16T17:54:18.087Z,101598.81
2023-03-16T17:56:42.415Z,101592.78
2023-03-16T17:59:12.593Z,101585.69
2023-03-16T18:01:39.063Z,101576.72
2023-03-16T18:04:03.009Z,101574.66
2023-03-16T18:06:29.826Z,101581.38
2023-03-16T18:08:53.511Z,101593.38
2023-03-16T18:11:21.316Z,101590.78
2023-03-16T18:13:45.417Z,101589.16
2023-03-16T18:16:10.245Z,101590.88
2023-03-16T18:18:39.446Z,101586.91
2023-03-16T18:21:03.047Z,101586.38
2023-03-16T18:23:30.333Z,101583.22
2023-03-16T18:25:56.193Z,101585.53
2023-03-16T18:28:21.942Z,101582.16
2023-03-16T18:30:48.570Z,101578.63
2023-03-16T18:33:24.994Z,101585.88
2023-03-16T18:35:48.764Z,101586.22
2023-03-16T18:38:19.746Z,101562.75
2023-03-16T18:40:44.718Z,101573.34
2023-03-16T18:43:13.116Z,101576.22
2023-03-16T18:45:37.000Z,101573.53
2023-03-16T18:48:00.668Z,101561.53
2023-03-16T18:50:28.689Z,101557.22
2023-03-16T18:52:52.846Z,101552.94
2023-03-16T18:55:19.603Z,101557.72
2023-03-16T18:57:46.576Z,101566.72
2023-03-16T19:00:17.808Z,101567.94
2023-03-16T19:02:43.675Z,101553.06
2023-03-16T19:05:12.496Z,101562.91
2023-03-16T19:07:39.502Z,101556.38
2023-03-16T19:10:08.614Z,101552.22
2023-03-16T19:12:32.231Z,101548.19
2023-03-16T19:14:57.138Z,101553.88
2023-03-16T19:17:20.712Z,101556.97
2023-03-16T19:19:44.237Z,101549.75
2023-03-16T19:22:13.786Z,101554.97
2023-03-16T19:24:46.125Z,101562.59
2023-03-16T19:27:21.716Z,101563.09
2023-03-16T19:29:45.347Z,101555.34
2023-03-16T19:32:17.942Z,101560.75
2023-03-16T19:34:41.520Z,101562.84
2023-03-16T19:37:05.043Z,101565.94
2023-03-16T19:39:28.630Z,101572.94
2023-03-16T19:41:57.983Z,101566.31
2023-03-16T19:44:25.349Z,101547.81
2023-03-16T19:46:49.533Z,101539.03
2023-03-16T19:49:18.221Z,101553.19
2023-03-16T19:51:41.741Z,101557.91
2023-03-16T19:54:05.665Z,101545.66
2023-03-16T19:56:29.349Z,101546.00
2023-03-16T19:58:54.485Z,101554.22
2023-03-16T20:01:22.034Z,101543.44
2023-03-16T20:03:47.502Z,101557.22
2023-03-16T20:06:15.684Z,101556.13
2023-03-16T20:08:39.420Z,101549.72
2023-03-16T20:11:07.353Z,101551.63
2023-03-16T20:13:31.690Z,101533.78
2023-03-16T20:15:55.877Z,101553.78
2023-03-16T20:18:19.708Z,101545.34
2023-03-16T20:20:44.646Z,101540.84
2023-03-16T20:23:20.266Z,101550.25
2023-03-16T20:25:43.884Z,101544.63
2023-03-16T20:28:17.924Z,101543.00
2023-03-16T20:30:41.547Z,101539.13
2023-03-16T20:33:06.266Z,101545.78
2023-03-16T20:35:32.461Z,101541.69
2023-03-16T20:37:57.000Z,101547.38
2023-03-16T20:40:23.020Z,101532.84
2023-03-16T20:42:47.552Z,101538.00
2023-03-16T20:45:20.957Z,101536.19
2023-03-16T20:47:44.941Z,101515.91
2023-03-16T20:50:24.344Z,101530.69
2023-03-16T20:52:49.152Z,101526.03
2023-03-16T20:55:17.112Z,101533.44
2023-03-16T20:57:43.752Z,101531.97
2023-03-16T21:00:19.668Z,101526.69
2023-03-16T21:02:43.263Z,101524.44
2023-03-16T21:05:09.789Z,101522.72
2023-03-16T21:07:33.986Z,101520.94
2023-03-16T21:09:57.557Z,101517.56
2023-03-16T21:12:27.961Z,101506.75
2023-03-16T21:14:53.271Z,101500.75
2023-03-16T21:17:25.916Z,101506.00
2023-03-16T21:19:50.956Z,101504.19
2023-03-16T21:22:24.926Z,101498.25
2023-03-16T21:24:48.526Z,101506.00
2023-03-16T21:27:20.939Z,101491.13
2023-03-16T21:29:44.558Z,101485.47
2023-03-16T21:32:20.931Z,101487.34
2023-03-16T21:34:44.603Z,101481.78
2023-03-16T21:37:14.718Z,101491.97
2023-03-16T21:39:38.347Z,101483.06
2023-03-16T21:42:02.249Z,101472.59
2023-03-16T21:44:26.078Z,101472.97
2023-03-16T21:46:49.870Z,101471.34
2023-03-16T21:49:16.477Z,101471.47
2023-03-16T21:51:40.220Z,101465.00
2023-03-16T21:54:03.913Z,101458.34
2023-03-16T21:56:27.718Z,101454.38
2023-03-16T21:58:52.154Z,101454.28
2023-03-16T22:01:24.943Z,101442.25
2023-03-16T22:03:51.263Z,101445.13
2023-03-16T22:06:16.574Z,101440.34
2023-03-16T22:08:40.195Z,101446.03
2023-03-16T22:11:04.109Z,101434.75
2023-03-16T22:13:27.893Z,101427.34
2023-03-16T22:15:52.817Z,101419.06
2023-03-16T22:18:29.183Z,101413.72
2023-03-16T22:20:52.856Z,101422.34
2023-03-16T22:23:31.860Z,101437.97
2023-03-16T22:25:55.556Z,101439.75
2023-03-16T22:28:19.396Z,101436.03
2023-03-16T22:30:43.789Z,101425.34
2023-03-16T22:33:07.572Z,101419.19
2023-03-16T22:35:35.451Z,101409.31
2023-03-16T22:38:01.670Z,101420.59
2023-03-16T22:40:31.518Z,101407.81
2023-03-16T22:42:56.768Z,101404.38
2023-03-16T22:45:25.108Z,101405.66
2023-03-16T22:47:48.847Z,101404.94
2023-03-16T22:50:16.761Z,101395.28
2023-03-16T22:52:40.901Z,101405.63
2023-03-16T22:55:08.305Z,101404.03
2023-03-16T22:57:33.525Z,101397.16
2023-03-16T22:59:57.259Z,101403.09
2023-03-16T23:02:26.054Z,101388.94
2023-03-16T23:04:49.666Z,101391.81
2023-03-16T23:07:15.146Z,101402.41
2023-03-16T23:09:38.803Z,101394.38
2023-03-16T23:12:03.259Z,101398.69
2023-03-16T23:14:34.114Z,101393.44
2023-03-16T23:16:57.844Z,101394.72
2023-03-16T23:19:26.585Z,101378.72
2023-03-16T23:21:50.252Z,101383.75
2023-03-16T23:24:13.791Z,101383.22
2023-03-16T23:26:37.781Z,101382.94
2023-03-16T23:29:01.574Z,101381.97
2023-03-16T23:31:28.194Z,101373.06
2023-03-16T23:33:51.768Z,101375.59
2023-03-16T23:36:17.795Z,101380.03
2023-03-16T23:38:41.496Z,101367.81
2023-03-16T23:41:06.413Z,101369.13
2023-03-16T23:43:30.009Z,101375.63
2023-03-16T23:45:53.901Z,101366.19
2023-03-16T23:48:22.222Z,101365.69
2023-03-16T23:50:47.684Z,101361.31
2023-03-16T23:53:16.662Z,101361.34
2023-03-16T23:55:40.539Z,101352.84
2023-03-16T23:58:04.105Z,101351.47
